Time;durP1;ratioP1;P1;durP2;ratioP2;P2;SDS_P1;SDS_P2;PMS_P1;PMS_P2;Temp;Humidity;BMP_temperature;BMP_pressure;BME280_temperature;BME280_humidity;BME280_pressure;Samples;Min_cycle;Max_cycle;Signal;HPM_P1;HPM_P2
2023/04/12 00:02:07;;;;;;;8.25;5.05;;;;;;;6.17;100.00;100423.22;5113516;28;20020;-74
2023/04/12 00:04:34;;;;;;;13.65;4.57;;;;;;;6.18;100.00;100420.44;5095286;28;20131;-74
2023/04/12 00:07:01;;;;;;;8.07;4.25;;;;;;;6.18;100.00;100417.81;5113412;28;20059;-74
2023/04/12 00:09:29;;;;;;;8.90;4.70;;;;;;;6.19;100.00;100416.00;5113568;28;20043;-74
2023/04/12 00:11:58;;;;;;;11.38;5.25;;;;;;;6.18;100.00;100412.53;5113224;28;20415;-73
2023/04/12 00:14:25;;;;;;;11.02;4.88;;;;;;;6.18;100.00;100399.31;5113906;28;20357;-73
2023/04/12 00:16:50;;;;;;;13.00;5.50;;;;;;;6.19;100.00;100397.50;5114182;28;20028;-73
2023/04/12 00:19:16;;;;;;;13.15;5.10;;;;;;;6.18;100.00;100393.19;5113392;28;20031;-74
2023/04/12 00:21:42;;;;;;;11.40;5.18;;;;;;;6.16;100.00;100382.72;5113970;28;20027;-74
2023/04/12 00:24:08;;;;;;;10.93;4.50;;;;;;;6.19;100.00;100360.53;5095005;28;20380;-73
2023/04/12 00:26:33;;;;;;;10.13;4.18;;;;;;;6.16;100.00;100350.19;5113109;28;20032;-74
2023/04/12 00:28:59;;;;;;;7.63;3.60;;;;;;;6.18;100.00;100348.28;5113749;28;20059;-74
2023/04/12 00:31:24;;;;;;;15.38;3.95;;;;;;;6.18;100.00;100324.53;5113546;28;20027;-74
2023/04/12 00:33:50;;;;;;;8.77;4.13;;;;;;;6.17;100.00;100320.19;5113546;28;20035;-74
2023/04/12 00:36:15;;;;;;;8.57;4.05;;;;;;;6.18;100.00;100312.13;5113350;28;20120;-74
2023/04/12 00:38:41;;;;;;;7.45;3.80;;;;;;;6.18;100.00;100309.50;5113487;28;20472;-73
2023/04/12 00:41:07;;;;;;;7.80;3.65;;;;;;;6.18;100.00;100320.06;5094899;28;20081;-74
2023/04/12 00:43:33;;;;;;;11.05;3.72;;;;;;;6.16;100.00;100294.72;5095748;28;20035;-74
2023/04/12 00:45:59;;;;;;;6.55;3.13;;;;;;;6.20;100.00;100308.53;5113249;28;20028;-75
2023/04/12 00:48:26;;;;;;;4.10;3.28;;;;;;;6.19;100.00;100302.41;5112854;28;20415;-75
2023/04/12 00:50:54;;;;;;;8.48;3.80;;;;;;;6.17;100.00;100285.84;5113088;28;20020;-75
2023/04/12 00:53:21;;;;;;;7.63;3.58;;;;;;;6.16;100.00;100274.41;5113693;28;20028;-73
2023/04/12 00:55:48;;;;;;;5.90;3.00;;;;;;;6.16;100.00;100276.22;5095190;28;20028;-74
2023/04/12 00:58:15;;;;;;;9.88;3.90;;;;;;;6.14;100.00;100252.59;5113884;28;20063;-74
2023/04/12 01:00:40;;;;;;;6.00;3.17;;;;;;;6.17;100.00;100254.16;5116921;28;20023;-74
2023/04/12 01:03:07;;;;;;;7.95;3.35;;;;;;;6.15;100.00;100237.56;5116784;28;20042;-75
2023/04/12 01:05:48;;;;;;;5.93;2.92;;;;;;;6.15;100.00;100232.28;5098873;28;20047;-74
2023/04/12 01:09:12;;;;;;;6.47;3.20;;;;;;;6.16;100.00;100228.69;5098401;28;20027;-76
2023/04/12 01:11:46;;;;;;;5.68;2.85;;;;;;;6.13;100.00;100221.84;5073189;28;20035;-74
2023/04/12 01:14:46;;;;;;;6.30;3.13;;;;;;;6.14;100.00;100206.84;5117502;28;20445;-74
2023/04/12 01:17:19;;;;;;;8.60;2.58;;;;;;;6.13;100.00;100211.28;5090778;28;20024;-75
2023/04/12 01:19:56;;;;;;;8.15;3.08;;;;;;;6.15;100.00;100195.28;5100037;28;20016;-75
2023/04/12 01:22:28;;;;;;;8.32;3.08;;;;;;;6.14;100.00;100193.66;5117893;28;20016;-75
2023/04/12 01:25:07;;;;;;;5.30;3.03;;;;;;;6.13;100.00;100192.78;5116654;28;20507;-75
2023/04/12 01:27:45;;;;;;;7.13;2.97;;;;;;;6.11;100.00;100164.84;5099748;28;20102;-76
2023/04/12 01:30:14;;;;;;;3.88;2.40;;;;;;;6.11;100.00;100160.38;5116138;28;20453;-75
2023/04/12 01:32:44;;;;;;;5.13;2.75;;;;;;;6.08;100.00;100158.00;5116828;28;20031;-75
2023/04/12 01:35:10;;;;;;;6.35;2.33;;;;;;;6.08;100.00;100157.16;5116903;28;20193;-75
2023/04/12 01:37:36;;;;;;;6.82;2.83;;;;;;;6.08;100.00;100143.97;5116560;28;20036;-75
2023/04/12 01:40:04;;;;;;;7.32;2.45;;;;;;;6.08;100.00;100134.22;5116174;28;20043;-74
2023/04/12 01:42:30;;;;;;;4.18;2.40;;;;;;;6.07;100.00;100132.53;5116069;28;20092;-75
2023/04/12 01:44:57;;;;;;;5.10;2.20;;;;;;;6.08;100.00;100126.31;5115801;28;20028;-75
2023/04/12 01:47:22;;;;;;;5.93;2.50;;;;;;;6.05;100.00;100121.28;5115906;28;20055;-75
2023/04/12 01:49:57;;;;;;;4.60;2.22;;;;;;;6.05;100.00;100112.53;5116278;28;20353;-74
2023/04/12 01:52:30;;;;;;;5.88;2.10;;;;;;;6.07;100.00;100110.59;5116475;28;20092;-75
2023/04/12 01:54:59;;;;;;;3.63;2.33;;;;;;;6.07;100.00;100100.84;5097173;28;20046;-75
2023/04/12 01:57:26;;;;;;;9.80;2.20;;;;;;;6.06;100.00;100095.69;5114209;28;20023;-75
2023/04/12 01:59:54;;;;;;;3.85;2.00;;;;;;;6.05;100.00;100086.94;5115604;28;20425;-75
2023/04/12 02:02:20;;;;;;;5.15;2.42;;;;;;;6.05;100.00;100089.59;5115455;28;20020;-74
2023/04/12 02:04:46;;;;;;;5.03;1.92;;;;;;;6.04;100.00;100079.16;5097093;28;20047;-75
2023/04/12 02:07:13;;;;;;;4.15;2.00;;;;;;;6.04;100.00;100068.59;5115828;28;20027;-75
2023/04/12 02:09:38;;;;;;;4.60;2.10;;;;;;;6.04;100.00;100072.06;5114741;28;20069;-74
2023/04/12 02:12:05;;;;;;;4.18;1.85;;;;;;;6.01;100.00;100051.19;5115459;28;20027;-75
2023/04/12 02:14:31;;;;;;;3.95;1.67;;;;;;;6.05;100.00;100059.72;5115334;28;20137;-74
2023/04/12 02:17:01;;;;;;;3.60;1.77;;;;;;;6.03;100.00;100058.97;5097149;28;20114;-74
2023/04/12 02:19:26;;;;;;;5.97;1.95;;;;;;;6.04;100.00;100045.66;5114896;28;20056;-77
2023/04/12 02:21:52;;;;;;;3.92;2.00;;;;;;;6.04;100.00;100052.75;5113086;28;20421;-80
2023/04/12 02:24:18;;;;;;;4.72;2.30;;;;;;;6.03;100.00;100053.69;5112952;28;20433;-78
2023/04/12 02:26:43;;;;;;;5.75;2.17;;;;;;;6.03;100.00;100027.28;5113038;28;20102;-78
2023/04/12 02:29:09;;;;;;;4.75;1.80;;;;;;;6.05;100.00;100025.38;5093984;28;20107;-77
2023/04/12 02:31:37;;;;;;;6.22;2.00;;;;;;;6.03;100.00;100030.78;5112596;28;20111;-77
2023/04/12 02:34:02;;;;;;;4.85;2.10;;;;;;;6.05;100.00;100022.75;5112482;28;20536;-76
2023/04/12 02:36:28;;;;;;;4.35;2.33;;;;;;;6.04;100.00;100007.84;5112035;28;20110;-77
2023/04/12 02:38:54;;;;;;;3.08;2.10;;;;;;;6.05;100.00;100010.34;5112232;28;20023;-77
2023/04/12 02:41:21;;;;;;;4.47;1.98;;;;;;;6.04;100.00;100011.31;5112558;28;20034;-77
2023/04/12 02:43:47;;;;;;;3.50;2.00;;;;;;;6.04;100.00;100013.13;5112250;28;20024;-77
2023/04/12 02:46:20;;;;;;;6.70;2.22;;;;;;;6.06;100.00;100003.25;5112040;28;20026;-77
2023/04/12 02:48:46;;;;;;;4.93;2.10;;;;;;;6.05;100.00;99991.88;5112337;28;20107;-77
2023/04/12 02:51:11;;;;;;;5.05;1.98;;;;;;;6.04;100.00;100000.75;5112521;28;20106;-77
2023/04/12 02:53:37;;;;;;;4.90;2.67;;;;;;;6.06;100.00;99984.78;5112310;28;20028;-76
2023/04/12 02:56:04;;;;;;;5.47;2.40;;;;;;;6.07;100.00;99987.28;5111892;28;20024;-76
2023/04/12 02:58:29;;;;;;;4.53;2.28;;;;;;;6.07;100.00;99975.91;5111670;28;20031;-77
2023/04/12 03:00:56;;;;;;;4.70;2.67;;;;;;;6.10;100.00;99973.00;5111858;28;20028;-77
2023/04/12 03:03:21;;;;;;;4.28;2.42;;;;;;;6.08;100.00;99965.19;5111863;28;20418;-77
2023/04/12 03:05:47;;;;;;;4.18;2.10;;;;;;;6.10;100.00;99960.59;5112726;28;20098;-77
2023/04/12 03:08:13;;;;;;;3.75;2.30;;;;;;;6.11;100.00;99942.97;5093506;28;20031;-78
2023/04/12 03:10:38;;;;;;;5.53;2.28;;;;;;;6.10;100.00;99946.56;5111222;28;20106;-77
2023/04/12 03:13:04;;;;;;;3.75;2.10;;;;;;;6.11;100.00;99940.34;5111803;28;20461;-77
2023/04/12 03:15:30;;;;;;;4.22;2.40;;;;;;;6.09;100.00;99947.53;5111323;28;20108;-77
2023/04/12 03:17:56;;;;;;;3.08;2.33;;;;;;;6.11;100.00;99950.91;5111522;28;20035;-77
2023/04/12 03:20:23;;;;;;;3.38;2.15;;;;;;;6.15;100.00;99957.56;5111171;28;20020;-77
2023/04/12 03:22:49;;;;;;;3.30;2.58;;;;;;;6.14;100.00;99946.19;5111290;28;20019;-77
2023/04/12 03:25:16;;;;;;;6.15;2.70;;;;;;;6.15;100.00;99925.88;5111509;28;20019;-77
2023/04/12 03:27:42;;;;;;;7.72;2.50;;;;;;;6.20;100.00;99917.56;5111374;28;20038;-78
2023/04/12 03:30:10;;;;;;;5.63;3.13;;;;;;;6.17;100.00;99923.94;5111530;28;20028;-77
2023/04/12 03:32:36;;;;;;;4.20;2.90;;;;;;;6.18;100.00;99928.28;5111378;28;20345;-77
2023/04/12 03:35:02;;;;;;;3.17;2.88;;;;;;;6.18;100.00;99907.97;5092964;28;20040;-76
2023/04/12 03:37:27;;;;;;;6.40;2.97;;;;;;;6.21;100.00;99913.94;5111404;28;20084;-76
2023/04/12 03:39:53;;;;;;;5.32;2.88;;;;;;;6.20;100.00;99907.00;5111206;28;20023;-77
2023/04/12 03:42:18;;;;;;;5.35;2.90;;;;;;;6.18;100.00;99897.41;5092370;28;20035;-76
2023/04/12 03:44:43;;;;;;;3.78;3.03;;;;;;;6.19;100.00;99903.50;5110963;28;20028;-78
2023/04/12 03:47:10;;;;;;;4.63;3.30;;;;;;;6.21;100.00;99893.66;5111096;28;20023;-78
2023/04/12 03:49:37;;;;;;;7.10;3.30;;;;;;;6.21;100.00;99888.38;5111391;28;20024;-77
2023/04/12 03:52:03;;;;;;;7.55;3.58;;;;;;;6.23;100.00;99881.16;5110828;28;20025;-78
2023/04/12 03:54:29;;;;;;;4.68;3.60;;;;;;;6.26;100.00;99872.13;5111082;28;20027;-78
2023/04/12 03:56:55;;;;;;;5.32;3.45;;;;;;;6.26;100.00;99867.66;5111225;28;20031;-78
2023/04/12 03:59:21;;;;;;;6.50;4.05;;;;;;;6.27;100.00;99871.13;5110750;28;20026;-77
2023/04/12 04:01:46;;;;;;;4.55;4.10;;;;;;;6.28;100.00;99870.19;5111346;28;20329;-77
2023/04/12 04:04:12;;;;;;;4.80;4.03;;;;;;;6.29;100.00;99867.41;5111032;28;20039;-77
2023/04/12 04:06:38;;;;;;;7.82;4.32;;;;;;;6.30;100.00;99861.16;5111103;28;20402;-77
2023/04/12 04:09:03;;;;;;;5.65;4.63;;;;;;;6.29;100.00;99867.41;5111104;28;20024;-77
2023/04/12 04:11:30;;;;;;;6.10;5.05;;;;;;;6.33;100.00;99870.63;5110982;28;20075;-77
2023/04/12 04:13:56;;;;;;;8.85;5.50;;;;;;;6.32;100.00;99868.94;5110730;28;20038;-77
2023/04/12 04:16:21;;;;;;;8.15;5.82;;;;;;;6.34;100.00;99874.91;5110942;28;20016;-77
2023/04/12 04:18:47;;;;;;;13.98;5.97;;;;;;;6.34;100.00;99874.91;5110736;28;20405;-76
2023/04/12 04:21:15;;;;;;;8.00;6.40;;;;;;;6.39;100.00;99875.38;5110758;28;20032;-77
2023/04/12 04:23:43;;;;;;;9.77;7.07;;;;;;;6.41;100.00;99864.66;5110746;28;20038;-77
2023/04/12 04:26:10;;;;;;;7.85;6.25;;;;;;;6.50;100.00;99872.59;5110532;28;20035;-76
2023/04/12 04:28:49;;;;;;;12.20;6.07;;;;;;;6.52;100.00;99868.03;5110870;28;20051;-76
2023/04/12 04:31:16;;;;;;;10.73;6.90;;;;;;;6.57;100.00;99878.19;5110392;28;20473;-76
2023/04/12 04:33:41;;;;;;;14.70;6.95;;;;;;;6.64;100.00;99884.59;5112098;28;20039;-77
2023/04/12 04:36:08;;;;;;;9.65;6.45;;;;;;;6.64;100.00;99881.94;5114471;28;20027;-79
2023/04/12 04:38:33;;;;;;;9.95;7.45;;;;;;;6.67;100.00;99879.03;5096881;28;20039;-78
2023/04/12 04:41:01;;;;;;;12.80;7.53;;;;;;;6.68;100.00;99883.31;5114936;28;20363;-78
2023/04/12 04:43:29;;;;;;;11.85;6.85;;;;;;;6.71;100.00;99883.03;5095767;28;20051;-78
2023/04/12 04:45:55;;;;;;;11.02;6.50;;;;;;;6.76;100.00;99887.09;5114390;28;20085;-78
2023/04/12 04:48:21;;;;;;;10.07;6.78;;;;;;;6.73;100.00;99882.09;5114344;28;20516;-79
2023/04/12 04:50:46;;;;;;;13.82;6.55;;;;;;;6.74;100.00;99878.47;5114607;28;20110;-78
2023/04/12 04:53:12;;;;;;;13.93;6.65;;;;;;;6.76;100.00;99881.81;5114309;28;20418;-79
2023/04/12 04:55:37;;;;;;;12.68;6.60;;;;;;;6.77;100.00;99880.84;5096124;28;20027;-79
2023/04/12 04:58:04;;;;;;;13.93;6.68;;;;;;;6.77;100.00;99876.38;5114323;28;20057;-79
2023/04/12 05:00:30;;;;;;;10.38;5.82;;;;;;;6.79;100.00;99882.38;5114232;28;20445;-78
2023/04/12 05:02:55;;;;;;;16.17;6.57;;;;;;;6.82;100.00;99875.97;5095583;28;20216;-79
2023/04/12 05:05:22;;;;;;;10.57;5.82;;;;;;;6.83;100.00;99877.63;5114245;28;20144;-79
2023/04/12 05:07:48;;;;;;;16.38;6.10;;;;;;;6.81;100.00;99880.44;5114091;28;20035;-78
2023/04/12 05:10:14;;;;;;;13.98;6.05;;;;;;;6.80;100.00;99877.91;5114066;28;20024;-79
2023/04/12 05:12:39;;;;;;;14.88;6.28;;;;;;;6.83;100.00;99880.28;5113890;28;20114;-79
2023/04/12 05:15:05;;;;;;;17.40;5.78;;;;;;;6.82;100.00;99873.31;5114207;28;20054;-79
2023/04/12 05:17:33;;;;;;;14.95;6.20;;;;;;;6.84;100.00;99872.22;5113699;28;20032;-78
2023/04/12 05:19:59;;;;;;;15.75;5.28;;;;;;;6.85;100.00;99865.09;5113839;28;20034;-77
2023/04/12 05:22:24;;;;;;;11.85;4.95;;;;;;;6.86;100.00;99869.44;5113862;28;20161;-77
2023/04/12 05:24:50;;;;;;;17.15;4.10;;;;;;;6.87;100.00;99871.94;5113563;28;20106;-76
2023/04/12 05:27:15;;;;;;;17.75;4.32;;;;;;;6.85;100.00;99876.53;5114102;28;20031;-77
2023/04/12 05:29:44;;;;;;;25.25;4.47;;;;;;;6.86;100.00;99866.78;5114158;28;20027;-78
2023/04/12 05:32:09;;;;;;;15.20;3.65;;;;;;;6.86;100.00;99867.59;5113553;28;20020;-78
2023/04/12 05:34:36;;;;;;;11.27;3.50;;;;;;;6.86;100.00;99872.91;5113553;28;20428;-78
2023/04/12 05:37:02;;;;;;;18.95;4.20;;;;;;;6.89;100.00;99871.78;5094809;28;20100;-78
2023/04/12 05:39:27;;;;;;;21.00;3.20;;;;;;;6.91;100.00;99880.41;5113833;28;20031;-78
2023/04/12 05:41:53;;;;;;;16.02;3.15;;;;;;;6.93;100.00;99882.94;5113702;28;20412;-78
2023/04/12 05:44:18;;;;;;;22.73;4.43;;;;;;;6.95;100.00;99881.81;5112087;28;20032;-78
2023/04/12 05:46:44;;;;;;;16.70;3.55;;;;;;;6.95;100.00;99881.00;5112659;28;20210;-79
2023/04/12 05:49:09;;;;;;;17.25;4.30;;;;;;;6.98;100.00;99883.34;5113164;28;20023;-77
2023/04/12 05:51:35;;;;;;;14.20;3.22;;;;;;;6.93;100.00;99886.41;5113292;28;20106;-77
2023/04/12 05:54:00;;;;;;;11.20;2.78;;;;;;;6.93;100.00;99875.00;5113303;28;20367;-79
2023/04/12 05:56:26;;;;;;;20.77;2.72;;;;;;;6.90;100.00;99876.13;5112627;28;20035;-76
2023/04/12 05:58:51;;;;;;;21.10;3.45;;;;;;;6.94;100.00;99871.38;5113001;28;20490;-76
2023/04/12 06:01:18;;;;;;;37.67;4.28;;;;;;;6.93;100.00;99875.84;5112683;28;20032;-76
2023/04/12 06:03:44;;;;;;;18.30;3.20;;;;;;;6.95;100.00;99886.28;5112527;28;21646;-78
2023/04/12 06:06:10;;;;;;;23.95;3.38;;;;;;;6.94;100.00;99874.88;5112636;28;20038;-75
2023/04/12 06:08:36;;;;;;;26.15;3.47;;;;;;;7.00;100.00;99884.03;5112552;28;20023;-76
2023/04/12 06:11:03;;;;;;;22.63;4.22;;;;;;;7.05;100.00;99881.81;5112485;28;20562;-76
2023/04/12 06:13:28;;;;;;;26.20;3.22;;;;;;;7.08;100.00;99878.91;5112381;28;20023;-76
2023/04/12 06:15:53;;;;;;;20.92;4.38;;;;;;;7.06;100.00;99883.47;5112448;28;20394;-76
2023/04/12 06:18:19;;;;;;;21.55;3.55;;;;;;;7.07;100.00;99891.28;5094259;28;20035;-76
2023/04/12 06:20:45;;;;;;;21.35;3.05;;;;;;;7.06;100.00;99889.63;5112398;28;20055;-76
2023/04/12 06:23:10;;;;;;;25.13;3.72;;;;;;;7.05;100.00;99897.69;5112300;28;20038;-75
2023/04/12 06:25:36;;;;;;;25.95;3.58;;;;;;;7.01;100.00;99889.19;5112499;28;20031;-76
2023/04/12 06:28:01;;;;;;;23.45;3.28;;;;;;;7.03;100.00;99889.03;5111820;28;20062;-75
2023/04/12 06:30:27;;;;;;;27.05;3.40;;;;;;;7.04;100.00;99891.56;5112200;28;20493;-75
2023/04/12 06:32:52;;;;;;;23.17;3.78;;;;;;;7.07;100.00;99883.34;5112304;28;20031;-73
2023/04/12 06:35:19;;;;;;;20.65;3.55;;;;;;;7.15;100.00;99887.09;5093580;28;20464;-74
2023/04/12 06:37:44;;;;;;;19.63;4.40;;;;;;;7.27;100.00;99882.50;5112677;28;20028;-75
2023/04/12 06:40:11;;;;;;;28.85;3.17;;;;;;;7.38;100.00;99888.47;5112064;28;20026;-75
2023/04/12 06:42:37;;;;;;;25.88;3.45;;;;;;;7.48;100.00;99882.31;5111738;28;20092;-75
2023/04/12 06:45:03;;;;;;;23.23;3.10;;;;;;;7.53;100.00;99872.97;5111655;28;20119;-77
2023/04/12 06:47:29;;;;;;;25.55;3.97;;;;;;;7.64;100.00;99869.31;5111623;28;20457;-76
2023/04/12 06:49:56;;;;;;;21.65;3.00;;;;;;;7.74;100.00;99864.00;5112006;28;20035;-77
2023/04/12 06:52:24;;;;;;;25.95;3.28;;;;;;;7.81;100.00;99865.09;5112183;28;20117;-79
2023/04/12 06:54:49;;;;;;;20.20;3.05;;;;;;;7.81;100.00;99861.59;5112096;28;20027;-79
2023/04/12 06:57:15;;;;;;;18.10;3.00;;;;;;;7.79;100.00;99867.03;5111116;28;20077;-77
2023/04/12 06:59:40;;;;;;;23.40;3.33;;;;;;;7.69;100.00;99861.78;5093189;28;20051;-76
2023/04/12 07:02:06;;;;;;;23.60;3.83;;;;;;;7.62;100.00;99866.00;5111347;28;20414;-78
2023/04/12 07:04:32;;;;;;;24.85;3.45;;;;;;;7.51;100.00;99866.16;5111146;28;20200;-75
2023/04/12 07:06:57;;;;;;;20.25;3.35;;;;;;;7.58;100.00;99864.59;5111071;28;20039;-76
2023/04/12 07:09:22;;;;;;;23.40;3.40;;;;;;;7.76;100.00;99860.25;5092341;28;20031;-77
2023/04/12 07:11:48;;;;;;;18.42;3.00;;;;;;;8.01;100.00;99859.72;5111162;28;20042;-77
2023/04/12 07:14:13;;;;;;;23.70;3.47;;;;;;;8.31;100.00;99847.97;5111102;28;20035;-78
2023/04/12 07:16:39;;;;;;;17.58;3.42;;;;;;;8.67;100.00;99849.88;5111174;28;20097;-77
2023/04/12 07:19:04;;;;;;;26.13;3.13;;;;;;;9.02;100.00;99848.19;5111006;28;20093;-77
2023/04/12 07:21:30;;;;;;;22.50;3.75;;;;;;;9.38;100.00;99841.03;5110936;28;20322;-75
2023/04/12 07:23:55;;;;;;;19.00;3.50;;;;;;;9.65;100.00;99840.03;5110788;28;20059;-73
2023/04/12 07:26:21;;;;;;;22.23;3.33;;;;;;;9.85;100.00;99827.34;5111241;28;20118;-76
2023/04/12 07:28:46;;;;;;;20.40;2.70;;;;;;;10.07;100.00;99828.59;5111070;28;20436;-79
2023/04/12 07:31:11;;;;;;;19.17;3.30;;;;;;;10.09;100.00;99838.22;5092576;28;20098;-76
2023/04/12 07:33:37;;;;;;;20.60;2.92;;;;;;;10.07;100.00;99838.41;5110842;28;20159;-77
2023/04/12 07:36:04;;;;;;;15.52;3.22;;;;;;;9.95;100.00;99834.38;5110788;28;20032;-77
2023/04/12 07:38:30;;;;;;;17.55;2.90;;;;;;;9.94;100.00;99836.19;5110642;28;20161;-75
2023/04/12 07:40:55;;;;;;;18.60;2.63;;;;;;;9.75;100.00;99834.59;5110622;28;20076;-75
2023/04/12 07:43:21;;;;;;;16.50;3.05;;;;;;;9.56;100.00;99830.34;5110439;28;20031;-77
2023/04/12 07:45:47;;;;;;;23.77;3.67;;;;;;;9.62;100.00;99829.72;5110872;28;20038;-76
2023/04/12 07:48:13;;;;;;;20.70;3.40;;;;;;;9.52;100.00;99835.16;5110096;28;20028;-77
2023/04/12 07:50:40;;;;;;;18.02;2.97;;;;;;;9.42;100.00;99834.41;5110823;28;20089;-75
2023/04/12 07:53:27;;;;;;;17.42;3.13;;;;;;;9.48;100.00;99833.78;5110570;28;20395;-75
2023/04/12 07:55:54;;;;;;;27.00;4.03;;;;;;;9.72;100.00;99832.28;5110707;28;20038;-73
2023/04/12 07:58:21;;;;;;;24.48;2.80;;;;;;;9.88;100.00;99832.34;5110815;28;20031;-76
2023/04/12 08:00:47;;;;;;;16.58;2.60;;;;;;;10.05;100.00;99832.41;5110395;28;20357;-74
2023/04/12 08:03:13;;;;;;;13.80;2.67;;;;;;;10.17;100.00;99836.44;5110551;28;20047;-77
2023/04/12 08:05:40;;;;;;;18.35;2.65;;;;;;;10.13;100.00;99831.59;5111057;28;20105;-73
2023/04/12 08:08:05;;;;;;;35.22;3.92;;;;;;;9.71;100.00;99841.22;5109694;28;20136;-76
2023/04/12 08:10:31;;;;;;;21.15;3.67;;;;;;;9.35;100.00;99844.00;5110514;28;20115;-74
2023/04/12 08:12:57;;;;;;;20.70;2.85;;;;;;;9.41;100.00;99837.22;5110271;28;20112;-76
2023/04/12 08:15:23;;;;;;;23.45;3.17;;;;;;;9.52;100.00;99834.28;5110601;28;20035;-75
2023/04/12 08:17:48;;;;;;;15.73;2.63;;;;;;;9.89;100.00;99838.47;5092036;28;20046;-76
2023/04/12 08:20:16;;;;;;;21.13;2.67;;;;;;;10.47;100.00;99838.72;5109808;28;20453;-73
2023/04/12 08:22:42;;;;;;;11.73;2.78;;;;;;;10.78;100.00;99833.63;5092068;28;20057;-75
2023/04/12 08:25:09;;;;;;;20.95;2.95;;;;;;;11.52;100.00;99840.72;5109832;28;20028;-73
2023/04/12 08:27:34;;;;;;;15.02;2.25;;;;;;;12.20;100.00;99833.22;5110357;28;20413;-74
2023/04/12 08:30:00;;;;;;;23.80;3.42;;;;;;;12.77;100.00;99838.19;5110270;28;20040;-75
2023/04/12 08:32:25;;;;;;;13.85;2.72;;;;;;;13.18;100.00;99837.88;5110089;28;20395;-75
2023/04/12 08:34:51;;;;;;;14.25;2.40;;;;;;;13.33;100.00;99842.41;5110041;28;20032;-74
2023/04/12 08:37:16;;;;;;;19.15;2.58;;;;;;;13.31;100.00;99836.44;5109971;28;20472;-73
2023/04/12 08:39:42;;;;;;;21.10;4.05;;;;;;;13.35;100.00;99827.91;5109884;28;20028;-75
2023/04/12 08:42:07;;;;;;;18.63;3.15;;;;;;;13.09;100.00;99830.94;5110331;28;20028;-74
2023/04/12 08:44:36;;;;;;;21.65;2.70;;;;;;;12.44;89.19;99835.75;5110076;28;20031;-74
2023/04/12 08:47:03;;;;;;;19.85;3.00;;;;;;;12.30;100.00;99831.16;5092021;28;20114;-74
2023/04/12 08:49:31;;;;;;;20.45;3.30;;;;;;;12.07;100.00;99815.09;5110120;28;20465;-73
2023/04/12 08:52:04;;;;;;;18.55;2.75;;;;;;;12.02;100.00;99817.44;5110230;28;20062;-72
2023/04/12 08:54:31;;;;;;;16.50;2.75;;;;;;;11.99;100.00;99810.66;5110495;28;20441;-73
2023/04/12 08:57:00;;;;;;;15.38;2.95;;;;;;;12.02;100.00;99815.63;5110119;28;20529;-72
2023/04/12 08:59:29;;;;;;;9.68;2.50;;;;;;;11.91;100.00;99811.50;5110312;28;20082;-73
2023/04/12 09:01:55;;;;;;;14.70;2.88;;;;;;;11.76;100.00;99816.69;5110183;28;20119;-73
2023/04/12 09:04:21;;;;;;;15.27;2.75;;;;;;;11.76;100.00;99814.03;5091277;28;20138;-74
2023/04/12 09:06:46;;;;;;;14.73;3.13;;;;;;;11.94;100.00;99821.84;5109988;28;20114;-74
2023/04/12 09:09:12;;;;;;;17.45;2.63;;;;;;;11.97;100.00;99823.31;5109959;28;20035;-73
2023/04/12 09:11:37;;;;;;;21.30;3.15;;;;;;;12.07;100.00;99823.09;5109660;28;20118;-74
2023/04/12 09:14:03;;;;;;;14.80;2.55;;;;;;;12.31;100.00;99828.31;5110150;28;20036;-73
2023/04/12 09:16:39;;;;;;;20.90;2.80;;;;;;;12.56;100.00;99828.16;5109869;28;20036;-75
2023/04/12 09:19:05;;;;;;;17.10;3.38;;;;;;;12.45;100.00;99834.75;5110753;28;20043;-76
2023/04/12 09:21:34;;;;;;;14.40;2.90;;;;;;;12.62;100.00;99832.78;5113565;28;20467;-77
2023/04/12 09:24:12;;;;;;;22.45;3.10;;;;;;;12.67;98.69;99837.59;5113552;28;20066;-75
2023/04/12 09:26:39;;;;;;;20.48;3.40;;;;;;;12.70;100.00;99821.22;5113343;28;20425;-75
2023/04/12 09:29:04;;;;;;;20.30;3.08;;;;;;;12.62;100.00;99829.31;5113426;28;20076;-76
2023/04/12 09:31:30;;;;;;;18.23;3.25;;;;;;;12.52;100.00;99826.84;5112924;28;20040;-75
2023/04/12 09:34:08;;;;;;;22.33;3.88;;;;;;;12.52;100.00;99833.03;5113143;28;20054;-76
2023/04/12 09:36:40;;;;;;;18.73;3.17;;;;;;;12.24;100.00;99826.50;5094255;28;20034;-75
2023/04/12 09:39:06;;;;;;;26.83;3.45;;;;;;;11.93;100.00;99822.81;5113036;28;20110;-75
2023/04/12 09:41:32;;;;;;;19.48;2.83;;;;;;;11.87;100.00;99827.97;5112820;28;20397;-75
2023/04/12 09:43:58;;;;;;;23.75;3.40;;;;;;;11.99;100.00;99824.78;5113133;28;20039;-77
2023/04/12 09:46:24;;;;;;;17.10;3.33;;;;;;;12.38;99.15;99828.44;5094776;28;20039;-78
2023/04/12 09:48:51;;;;;;;20.75;2.92;;;;;;;12.79;91.70;99824.69;5112903;28;20042;-78
2023/04/12 09:51:25;;;;;;;12.23;3.00;;;;;;;12.89;96.93;99825.28;5113234;28;20027;-78
2023/04/12 09:53:52;;;;;;;19.30;2.85;;;;;;;13.15;95.91;99835.59;5113181;28;20028;-79
2023/04/12 09:56:21;;;;;;;18.20;2.97;;;;;;;13.13;91.08;99832.25;5113768;28;20046;-80
2023/04/12 09:58:51;;;;;;;21.88;4.70;;;;;;;13.45;79.88;99835.66;5112630;28;20114;-76
2023/04/12 10:01:17;;;;;;;21.63;3.53;;;;;;;14.69;74.87;99823.44;5112888;28;20027;-76
2023/04/12 10:03:43;;;;;;;13.73;2.40;;;;;;;15.12;66.84;99823.41;5112379;28;20049;-74
2023/04/12 10:06:09;;;;;;;18.20;2.88;;;;;;;14.99;62.71;99827.66;5113066;28;20035;-76
2023/04/12 10:08:36;;;;;;;19.13;3.15;;;;;;;14.27;62.94;99829.38;5112621;28;20106;-75
2023/04/12 10:11:03;;;;;;;16.05;3.15;;;;;;;14.35;60.86;99833.78;5112919;28;20055;-74
2023/04/12 10:13:35;;;;;;;13.80;2.78;;;;;;;14.03;57.96;99819.81;5113823;28;20040;-75
2023/04/12 10:16:02;;;;;;;14.27;2.67;;;;;;;14.51;57.60;99826.53;5113040;28;20447;-75
2023/04/12 10:18:28;;;;;;;9.85;2.30;;;;;;;15.80;51.60;99830.94;5112493;28;20417;-75
2023/04/12 10:20:54;;;;;;;8.13;2.00;;;;;;;15.58;47.89;99824.78;5112588;28;20445;-74
2023/04/12 10:23:19;;;;;;;18.63;2.63;;;;;;;14.97;52.57;99831.53;5076935;28;20080;-76
2023/04/12 10:25:47;;;;;;;13.02;2.13;;;;;;;14.57;56.08;99825.75;5112628;28;20051;-75
2023/04/12 10:28:22;;;;;;;8.13;2.22;;;;;;;16.17;53.89;99827.00;5112067;28;20043;-77
2023/04/12 10:30:50;;;;;;;16.33;2.83;;;;;;;17.66;53.81;99823.44;5111044;28;20039;-78
2023/04/12 10:33:18;;;;;;;15.35;3.10;;;;;;;17.48;51.34;99838.38;5112361;28;20039;-76
2023/04/12 10:36:05;;;;;;;14.55;2.50;;;;;;;16.66;49.13;99829.59;5112067;28;20085;-77
2023/04/12 10:38:47;;;;;;;18.10;2.40;;;;;;;16.05;49.72;99825.91;5112264;28;20031;-78
2023/04/12 10:41:15;;;;;;;10.63;2.65;;;;;;;15.12;50.79;99829.63;5093495;28;20034;-77
2023/04/12 10:43:42;;;;;;;16.95;2.50;;;;;;;15.21;52.96;99833.00;5093281;28;20031;-79
2023/04/12 10:46:07;;;;;;;17.25;2.83;;;;;;;15.13;55.04;99833.94;5112104;28;20072;-78
2023/04/12 10:48:36;;;;;;;11.20;2.80;;;;;;;16.35;53.58;99829.13;5111752;28;20151;-79
2023/04/12 10:51:25;;;;;;;13.30;2.80;;;;;;;17.59;48.02;99835.03;5112398;28;20454;-79
2023/04/12 10:53:52;;;;;;;11.23;2.17;;;;;;;18.55;45.01;99835.31;5112235;28;20110;-76
2023/04/12 10:56:30;;;;;;;9.05;2.55;;;;;;;18.52;45.72;99843.03;5111965;28;20047;-77
2023/04/12 10:58:59;;;;;;;12.15;2.47;;;;;;;18.02;44.83;99835.56;5111453;28;20043;-74
2023/04/12 11:01:27;;;;;;;11.02;2.28;;;;;;;17.80;43.99;99835.81;5112200;28;20038;-76
2023/04/12 11:04:14;;;;;;;6.15;2.15;;;;;;;17.09;44.66;99837.34;5111465;28;20113;-76
2023/04/12 11:06:48;;;;;;;9.75;2.20;;;;;;;16.67;44.34;99839.31;5111617;28;20135;-74
2023/04/12 11:09:21;;;;;;;7.07;2.17;;;;;;;17.23;43.21;99849.75;5111308;28;20157;-77
2023/04/12 11:11:48;;;;;;;7.35;2.08;;;;;;;17.58;40.80;99843.31;5111609;28;20174;-79
2023/04/12 11:14:22;;;;;;;16.15;2.65;;;;;;;18.12;40.49;99850.25;5111631;28;20039;-78
2023/04/12 11:17:06;;;;;;;9.90;2.25;;;;;;;17.49;42.11;99852.63;5111143;28;20476;-78
2023/04/12 11:19:32;;;;;;;9.05;2.25;;;;;;;16.93;43.96;99849.31;5111751;28;20449;-78
2023/04/12 11:22:01;;;;;;;12.77;2.78;;;;;;;16.89;44.38;99845.38;5111398;28;20046;-77
2023/04/12 11:24:27;;;;;;;13.75;3.00;;;;;;;16.35;46.74;99844.41;5111244;28;20031;-76
2023/04/12 11:26:53;;;;;;;9.80;1.85;;;;;;;16.38;46.44;99854.75;5111175;28;20495;-75